Time,TemperatureF,DewpointF,PressureIn,WindDirection,WindDirectionDegrees,WindSpeedMPH,WindSpeedGustMPH,Humidity,HourlyPrecipIn,Conditions,Clouds,dailyrainin,SoftwareType,DateUTC
2013-06-14 00:01:00,69.0,65.0,-100.00,WNW,296,4.0,6.0,88,0.00,,,-99.99,,2013-06-14 04:01:00,
2013-06-14 00:12:00,69.0,65.0,-100.00,WNW,296,4.0,6.0,88,0.00,,,-99.99,,2013-06-14 04:12:00,
2013-06-14 00:23:00,69.0,65.0,-100.00,WNW,296,4.0,6.0,88,0.00,,,-99.99,,2013-06-14 04:23:00,
2013-06-14 00:33:00,69.0,65.0,-100.00,NW,315,5.0,7.0,88,0.00,,,-99.99,,2013-06-14 04:33:00,
2013-06-14 00:43:00,69.0,65.0,-100.00,NW,318,6.0,9.0,86,0.00,,,-99.99,,2013-06-14 04:43:00,
2013-06-14 00:53:00,69.0,65.0,-100.00,NW,318,6.0,9.0,86,0.00,,,-99.99,,2013-06-14 04:53:00,
2013-06-14 01:00:00,68.0,64.0,-100.00,WNW,302,3.0,6.0,85,0.00,,,-99.99,,2013-06-14 05:00:00,
2013-06-14 01:02:00,69.0,64.0,-100.00,WNW,298,4.0,6.0,86,0.00,,,-99.99,,2013-06-14 05:02:00,
2013-06-14 01:12:00,69.0,64.0,-100.00,WNW,298,4.0,6.0,86,0.00,,,-99.99,,2013-06-14 05:12:00,
2013-06-14 01:22:00,69.0,64.0,-100.00,WNW,298,4.0,6.0,86,0.00,,,-99.99,,2013-06-14 05:22:00,
2013-06-14 01:34:00,68.0,64.0,-100.00,WNW,302,3.0,6.0,85,0.00,,,-99.99,,2013-06-14 05:34:00,
2013-06-14 01:43:00,68.0,64.0,-100.00,WNW,302,3.0,6.0,85,0.00,,,-99.99,,2013-06-14 05:43:00,
2013-06-14 01:52:00,68.0,64.0,-100.00,WNW,302,3.0,6.0,85,0.00,,,-99.99,,2013-06-14 05:52:00,
2013-06-14 03:53:00,64.0,59.0,-100.00,West,280,4.0,5.0,82,0.00,,,-99.99,,2013-06-14 07:53:00,
2013-06-14 04:02:00,64.0,58.0,-100.00,West,270,6.0,8.0,79,0.00,,,-99.99,,2013-06-14 08:02:00,
2013-06-14 04:12:00,64.0,58.0,-100.00,West,270,6.0,8.0,79,0.00,,,-99.99,,2013-06-14 08:12:00,
2013-06-14 04:23:00,64.0,58.0,-100.00,West,270,6.0,8.0,79,0.00,,,-99.99,,2013-06-14 08:23:00,
2013-06-14 04:33:00,64.0,58.0,-100.00,West,272,4.0,6.0,82,0.00,,,-99.99,,2013-06-14 08:33:00,
2013-06-14 04:43:00,63.0,57.0,-100.00,West,281,4.0,6.0,80,0.00,,,-99.99,,2013-06-14 08:43:00,
2013-06-14 04:53:00,63.0,57.0,-100.00,West,281,4.0,6.0,80,0.00,,,-99.99,,2013-06-14 08:53:00,
2013-06-14 05:02:00,63.0,57.0,-100.00,West,281,4.0,6.0,80,0.00,,,-99.99,,2013-06-14 09:02:00,
2013-06-14 05:12:00,63.0,57.0,-100.00,WNW,292,4.0,7.0,81,0.00,,,-99.99,,2013-06-14 09:12:00,
2013-06-14 05:22:00,63.0,57.0,-100.00,WNW,292,4.0,7.0,81,0.00,,,-99.99,,2013-06-14 09:22:00,
2013-06-14 05:33:00,63.0,57.0,-100.00,WNW,292,3.0,8.0,81,0.00,,,-99.99,,2013-06-14 09:33:00,
2013-06-14 05:43:00,63.0,56.0,-100.00,WNW,292,4.0,6.0,78,0.00,,,-99.99,,2013-06-14 09:43:00,
2013-06-14 05:53:00,63.0,56.0,-100.00,WNW,292,4.0,6.0,78,0.00,,,-99.99,,2013-06-14 09:53:00,
2013-06-14 06:02:00,63.0,56.0,-100.00,WNW,292,4.0,6.0,78,0.00,,,-99.99,,2013-06-14 10:02:00,
2013-06-14 06:12:00,63.0,55.0,-100.00,NW,311,3.0,7.0,75,0.00,,,-99.99,,2013-06-14 10:12:00,
2013-06-14 06:22:00,63.0,55.0,-100.00,NW,319,4.0,6.0,75,0.00,,,-99.99,,2013-06-14 10:22:00,
2013-06-14 06:34:00,63.0,55.0,-100.00,NW,319,4.0,6.0,75,0.00,,,-99.99,,2013-06-14 10:34:00,
2013-06-14 06:43:00,63.0,55.0,-100.00,NW,304,3.0,7.0,76,0.00,,,-99.99,,2013-06-14 10:43:00,
2013-06-14 06:53:00,63.0,55.0,-100.00,NW,304,3.0,7.0,76,0.00,,,-99.99,,2013-06-14 10:53:00,
2013-06-14 07:02:00,63.0,55.0,-100.00,NW,304,3.0,7.0,76,0.00,,,-99.99,,2013-06-14 11:02:00,
2013-06-14 07:11:00,63.0,55.0,-100.00,NW,326,4.0,7.0,75,0.00,,,-99.99,,2013-06-14 11:11:00,
2013-06-14 07:23:00,64.0,55.0,-100.00,NNW,333,3.0,6.0,72,0.00,,,-99.99,,2013-06-14 11:23:00,
2013-06-14 07:33:00,64.0,55.0,-100.00,NNW,333,3.0,6.0,72,0.00,,,-99.99,,2013-06-14 11:33:00,
2013-06-14 07:43:00,65.0,55.0,-100.00,NNW,337,3.0,5.0,72,0.00,,,-99.99,,2013-06-14 11:43:00,
2013-06-14 07:52:00,65.0,55.0,-100.00,NNW,337,3.0,5.0,72,0.00,,,-99.99,,2013-06-14 11:52:00,
2013-06-14 08:02:00,65.0,55.0,-100.00,NNW,337,3.0,5.0,72,0.00,,,-99.99,,2013-06-14 12:02:00,
2013-06-14 08:12:00,66.0,56.0,-100.00,North,4,5.0,9.0,71,0.00,,,-99.99,,2013-06-14 12:12:00,
2013-06-14 08:22:00,67.0,56.0,-100.00,NNE,13,6.0,9.0,68,0.00,,,-99.99,,2013-06-14 12:22:00,
2013-06-14 08:33:00,67.0,56.0,-100.00,NNE,13,6.0,9.0,68,0.00,,,-99.99,,2013-06-14 12:33:00,
2013-06-14 08:43:00,68.0,57.0,-100.00,NE,41,4.0,7.0,68,0.00,,,-99.99,,2013-06-14 12:43:00,
2013-06-14 08:52:00,68.0,57.0,-100.00,NE,41,4.0,7.0,68,0.00,,,-99.99,,2013-06-14 12:52:00,
2013-06-14 09:02:00,68.0,57.0,-100.00,NE,41,4.0,7.0,68,0.00,,,-99.99,,2013-06-14 13:02:00,
2013-06-14 09:12:00,69.0,57.0,-100.00,ENE,62,4.0,6.0,66,0.00,,,-99.99,,2013-06-14 13:12:00,
2013-06-14 09:22:00,69.0,57.0,-100.00,ENE,62,4.0,6.0,66,0.00,,,-99.99,,2013-06-14 13:22:00,
2013-06-14 09:33:00,69.0,57.0,-100.00,ENE,62,4.0,6.0,66,0.00,,,-99.99,,2013-06-14 13:33:00,
2013-06-14 09:43:00,71.0,55.0,-100.00,NNE,17,4.0,10.0,58,0.00,,,-99.99,,2013-06-14 13:43:00,
2013-06-14 09:53:00,71.0,55.0,-100.00,NNE,17,4.0,10.0,58,0.00,,,-99.99,,2013-06-14 13:53:00,
2013-06-14 10:02:00,72.0,56.0,-100.00,NE,48,5.0,8.0,56,0.00,,,-99.99,,2013-06-14 14:02:00,
2013-06-14 10:12:00,72.0,56.0,-100.00,NE,48,5.0,8.0,56,0.00,,,-99.99,,2013-06-14 14:12:00,
2013-06-14 10:22:00,72.0,55.0,-100.00,ENE,61,7.0,12.0,55,0.00,,,-99.99,,2013-06-14 14:22:00,
2013-06-14 10:34:00,72.0,55.0,-100.00,ENE,61,7.0,12.0,55,0.00,,,-99.99,,2013-06-14 14:34:00,
2013-06-14 10:43:00,73.0,56.0,-100.00,ENE,66,6.0,12.0,55,0.00,,,-99.99,,2013-06-14 14:43:00,
2013-06-14 10:52:00,73.0,56.0,-100.00,ENE,66,6.0,12.0,55,0.00,,,-99.99,,2013-06-14 14:52:00,
2013-06-14 11:02:00,73.0,56.0,-100.00,ENE,66,6.0,12.0,55,0.00,,,-99.99,,2013-06-14 15:02:00,
2013-06-14 11:12:00,74.0,54.0,-100.00,NE,44,5.0,9.0,51,0.00,,,-99.99,,2013-06-14 15:12:00,
2013-06-14 11:23:00,74.0,54.0,-100.00,NE,44,5.0,9.0,51,0.00,,,-99.99,,2013-06-14 15:23:00,
2013-06-14 11:33:00,74.0,54.0,-100.00,NE,44,5.0,9.0,51,0.00,,,-99.99,,2013-06-14 15:33:00,
2013-06-14 11:44:00,75.0,55.0,-100.00,ENE,58,6.0,10.0,49,0.00,,,-99.99,,2013-06-14 15:44:00,
2013-06-14 11:53:00,75.0,55.0,-100.00,ENE,58,6.0,10.0,49,0.00,,,-99.99,,2013-06-14 15:53:00,
2013-06-14 12:02:00,75.0,55.0,-100.00,ENE,58,6.0,10.0,49,0.00,,,-99.99,,2013-06-14 16:02:00,
2013-06-14 12:11:00,76.0,54.0,-100.00,North,1,6.0,13.0,48,0.00,,,-99.99,,2013-06-14 16:11:00,
2013-06-14 12:23:00,76.0,54.0,-100.00,North,1,6.0,13.0,48,0.00,,,-99.99,,2013-06-14 16:23:00,
2013-06-14 12:33:00,76.0,55.0,-100.00,NE,54,5.0,11.0,47,0.00,,,-99.99,,2013-06-14 16:33:00,
2013-06-14 12:43:00,76.0,55.0,-100.00,NE,54,5.0,11.0,47,0.00,,,-99.99,,2013-06-14 16:43:00,
2013-06-14 12:53:00,76.0,53.0,-100.00,ENE,76,5.0,11.0,44,0.00,,,-99.99,,2013-06-14 16:53:00,
2013-06-14 13:02:00,78.0,57.0,-100.00,ENE,73,4.0,8.0,48,0.00,,,-99.99,,2013-06-14 17:02:00,
2013-06-14 13:12:00,78.0,57.0,-100.00,ENE,73,4.0,8.0,48,0.00,,,-99.99,,2013-06-14 17:12:00,
2013-06-14 13:23:00,78.0,57.0,-100.00,ENE,73,4.0,8.0,48,0.00,,,-99.99,,2013-06-14 17:23:00,
2013-06-14 13:34:00,75.0,53.0,-100.00,ENE,64,11.0,17.0,46,0.00,,,-99.99,,2013-06-14 17:34:00,
2013-06-14 13:43:00,76.0,55.0,-100.00,ENE,73,6.0,10.0,48,0.00,,,-99.99,,2013-06-14 17:43:00,
2013-06-14 13:54:00,76.0,55.0,-100.00,ENE,73,6.0,10.0,48,0.00,,,-99.99,,2013-06-14 17:54:00,
2013-06-14 14:02:00,76.0,55.0,-100.00,ENE,73,6.0,10.0,48,0.00,,,-99.99,,2013-06-14 18:02:00,
2013-06-14 14:11:00,76.0,55.0,-100.00,ENE,73,6.0,10.0,48,0.00,,,-99.99,,2013-06-14 18:11:00,
2013-06-14 14:22:00,77.0,56.0,-100.00,ENE,66,5.0,7.0,49,0.00,,,-99.99,,2013-06-14 18:22:00,
2013-06-14 14:33:00,76.0,53.0,-100.00,ENE,73,6.0,11.0,45,0.00,,,-99.99,,2013-06-14 18:33:00,
2013-06-14 14:43:00,78.0,57.0,-100.00,East,83,6.0,9.0,49,0.00,,,-99.99,,2013-06-14 18:43:00,
2013-06-14 14:52:00,78.0,57.0,-100.00,East,83,6.0,9.0,49,0.00,,,-99.99,,2013-06-14 18:52:00,
2013-06-14 15:01:00,78.0,56.0,-100.00,East,79,6.0,8.0,47,0.00,,,-99.99,,2013-06-14 19:01:00,
2013-06-14 15:11:00,78.0,56.0,-100.00,East,79,6.0,8.0,47,0.00,,,-99.99,,2013-06-14 19:11:00,
2013-06-14 15:22:00,78.0,56.0,-100.00,East,79,6.0,8.0,47,0.00,,,-99.99,,2013-06-14 19:22:00,
2013-06-14 15:33:00,78.0,56.0,-100.00,ENE,71,9.0,14.0,45,0.00,,,-99.99,,2013-06-14 19:33:00,
2013-06-14 15:43:00,79.0,51.0,-100.00,East,83,8.0,14.0,40,0.00,,,-99.99,,2013-06-14 19:43:00,
2013-06-14 15:53:00,79.0,51.0,-100.00,East,83,8.0,14.0,40,0.00,,,-99.99,,2013-06-14 19:53:00,
2013-06-14 16:02:00,78.0,51.0,-100.00,NE,56,9.0,13.0,39,0.00,,,-99.99,,2013-06-14 20:02:00,
2013-06-14 16:11:00,78.0,51.0,-100.00,NE,56,9.0,13.0,39,0.00,,,-99.99,,2013-06-14 20:11:00,
2013-06-14 16:22:00,78.0,51.0,-100.00,NE,56,9.0,13.0,39,0.00,,,-99.99,,2013-06-14 20:22:00,
2013-06-14 16:33:00,78.0,56.0,-100.00,NE,41,3.0,7.0,48,0.00,,,-99.99,,2013-06-14 20:33:00,
2013-06-14 16:43:00,79.0,50.0,-100.00,ENE,72,6.0,11.0,35,0.00,,,-99.99,,2013-06-14 20:43:00,
2013-06-14 16:53:00,79.0,50.0,-100.00,ENE,72,6.0,11.0,35,0.00,,,-99.99,,2013-06-14 20:53:00,
2013-06-14 17:02:00,79.0,50.0,-100.00,ENE,72,6.0,11.0,35,0.00,,,-99.99,,2013-06-14 21:02:00,
2013-06-14 17:12:00,79.0,50.0,-100.00,ENE,72,6.0,11.0,35,0.00,,,-99.99,,2013-06-14 21:12:00,
2013-06-14 17:22:00,78.0,51.0,-100.00,ENE,66,8.0,12.0,38,0.00,,,-99.99,,2013-06-14 21:22:00,
2013-06-14 17:34:00,78.0,51.0,-100.00,ENE,66,8.0,12.0,38,0.00,,,-99.99,,2013-06-14 21:34:00,
2013-06-14 17:43:00,80.0,51.0,-100.00,East,80,5.0,7.0,37,0.00,,,-99.99,,2013-06-14 21:43:00,
2013-06-14 17:52:00,80.0,51.0,-100.00,East,80,5.0,7.0,37,0.00,,,-99.99,,2013-06-14 21:52:00,
2013-06-14 18:02:00,80.0,52.0,-100.00,ENE,68,5.0,9.0,38,0.00,,,-99.99,,2013-06-14 22:02:00,
2013-06-14 18:12:00,80.0,52.0,-100.00,ENE,68,5.0,9.0,38,0.00,,,-99.99,,2013-06-14 22:12:00,
2013-06-14 18:22:00,82.0,53.0,-100.00,South,176,1.0,2.0,36,0.00,,,-99.99,,2013-06-14 22:22:00,
2013-06-14 18:33:00,82.0,53.0,-100.00,South,176,1.0,2.0,36,0.00,,,-99.99,,2013-06-14 22:33:00,
2013-06-14 18:43:00,80.0,53.0,-100.00,ESE,102,2.0,3.0,40,0.00,,,-99.99,,2013-06-14 22:43:00,
2013-06-14 18:53:00,80.0,53.0,-100.00,ESE,102,2.0,3.0,40,0.00,,,-99.99,,2013-06-14 22:53:00,
2013-06-14 19:02:00,79.0,54.0,-100.00,East,99,3.0,7.0,43,0.00,,,-99.99,,2013-06-14 23:02:00,
2013-06-14 19:12:00,79.0,54.0,-100.00,East,99,3.0,7.0,43,0.00,,,-99.99,,2013-06-14 23:12:00,
2013-06-14 19:22:00,80.0,53.0,-100.00,ENE,64,2.0,5.0,38,0.00,,,-99.99,,2013-06-14 23:22:00,
2013-06-14 19:33:00,80.0,53.0,-100.00,ENE,64,2.0,5.0,38,0.00,,,-99.99,,2013-06-14 23:33:00,
2013-06-14 19:43:00,79.0,58.0,-100.00,East,83,1.0,2.0,47,0.00,,,-99.99,,2013-06-14 23:43:00,
2013-06-14 19:52:00,79.0,58.0,-100.00,East,83,1.0,2.0,47,0.00,,,-99.99,,2013-06-14 23:52:00,
2013-06-14 20:01:00,79.0,58.0,-100.00,East,83,1.0,2.0,47,0.00,,,-99.99,,2013-06-15 00:01:00,
2013-06-14 20:12:00,75.0,58.0,-100.00,SSW,200,0.0,1.0,55,0.00,,,-99.99,,2013-06-15 00:12:00,
2013-06-14 20:23:00,73.0,60.0,-100.00,South,185,0.0,1.0,63,0.00,,,-99.99,,2013-06-15 00:23:00,
2013-06-14 20:34:00,73.0,60.0,-100.00,South,185,0.0,1.0,63,0.00,,,-99.99,,2013-06-15 00:34:00,
2013-06-14 20:43:00,71.0,62.0,-100.00,SW,226,1.0,1.0,72,0.00,,,-99.99,,2013-06-15 00:43:00,
2013-06-14 20:53:00,71.0,62.0,-100.00,SW,226,1.0,1.0,72,0.00,,,-99.99,,2013-06-15 00:53:00,
2013-06-14 21:02:00,69.0,60.0,-100.00,WSW,241,1.0,2.0,73,0.00,,,-99.99,,2013-06-15 01:02:00,
2013-06-14 21:11:00,69.0,60.0,-100.00,WSW,241,1.0,2.0,73,0.00,,,-99.99,,2013-06-15 01:11:00,
2013-06-14 21:22:00,68.0,60.0,-100.00,WSW,248,2.0,2.0,76,0.00,,,-99.99,,2013-06-15 01:22:00,
2013-06-14 21:33:00,68.0,60.0,-100.00,WSW,248,2.0,2.0,76,0.00,,,-99.99,,2013-06-15 01:33:00,
2013-06-14 21:43:00,67.0,59.0,-100.00,WSW,244,1.0,2.0,77,0.00,,,-99.99,,2013-06-15 01:43:00,
2013-06-14 21:54:00,67.0,59.0,-100.00,WSW,244,1.0,2.0,77,0.00,,,-99.99,,2013-06-15 01:54:00,
2013-06-14 22:02:00,66.0,60.0,-100.00,WSW,239,1.0,2.0,81,0.00,,,-99.99,,2013-06-15 02:02:00,
2013-06-14 22:12:00,66.0,60.0,-100.00,WSW,239,1.0,2.0,81,0.00,,,-99.99,,2013-06-15 02:12:00,
2013-06-14 22:23:00,66.0,60.0,-100.00,WSW,239,1.0,2.0,81,0.00,,,-99.99,,2013-06-15 02:23:00,
2013-06-14 22:34:00,65.0,60.0,-100.00,WSW,241,0.0,1.0,84,0.00,,,-99.99,,2013-06-15 02:34:00,
2013-06-14 22:43:00,65.0,61.0,-100.00,WSW,244,1.0,2.0,85,0.00,,,-99.99,,2013-06-15 02:43:00,
2013-06-14 22:53:00,65.0,61.0,-100.00,WSW,244,1.0,2.0,85,0.00,,,-99.99,,2013-06-15 02:53:00,
2013-06-14 23:01:00,65.0,61.0,-100.00,WSW,240,1.0,2.0,86,0.00,,,-99.99,,2013-06-15 03:01:00,
2013-06-14 23:11:00,65.0,61.0,-100.00,WSW,240,1.0,2.0,86,0.00,,,-99.99,,2013-06-15 03:11:00,
2013-06-14 23:24:00,65.0,61.0,-100.00,WSW,240,1.0,2.0,86,0.00,,,-99.99,,2013-06-15 03:24:00,
2013-06-14 23:32:00,64.0,60.0,-100.00,South,185,0.0,1.0,87,0.00,,,-99.99,,2013-06-15 03:32:00,
2013-06-14 23:44:00,64.0,61.0,-100.00,SW,236,0.0,1.0,88,0.00,,,-99.99,,2013-06-15 03:44:00,
2013-06-14 23:53:00,64.0,61.0,-100.00,SW,236,0.0,1.0,88,0.00,,,-99.99,,2013-06-15 03:53:00,